Time;durP1;ratioP1;P1;durP2;ratioP2;P2;SDS_P1;SDS_P2;PMS_P1;PMS_P2;Temp;Humidity;BMP_temperature;BMP_pressure;BME280_temperature;BME280_humidity;BME280_pressure;Samples;Min_cycle;Max_cycle;Signal;HPM_P1;HPM_P2
2022/03/28 00:00:25;;;;;;;56.03;30.08;;;8.90;99.90;;;;;;5072029;28;20089;-57
2022/03/28 00:02:51;;;;;;;61.83;30.70;;;8.90;99.90;;;;;;5071024;28;20035;-57
2022/03/28 00:05:19;;;;;;;52.53;28.65;;;8.80;99.90;;;;;;5069902;28;20024;-57
2022/03/28 00:07:45;;;;;;;51.33;28.25;;;8.80;99.90;;;;;;5071204;28;20439;-57
2022/03/28 00:10:12;;;;;;;54.47;28.13;;;8.80;99.90;;;;;;5070718;28;20077;-57
2022/03/28 00:12:40;;;;;;;49.67;27.55;;;8.80;99.90;;;;;;5070028;28;20025;-57
2022/03/28 00:15:07;;;;;;;50.33;27.13;;;8.90;99.90;;;;;;5071604;28;20443;-58
2022/03/28 00:17:33;;;;;;;48.53;26.83;;;9.00;99.90;;;;;;5071009;28;20095;-58
2022/03/28 00:20:06;;;;;;;44.13;25.17;;;9.00;99.90;;;;;;5070323;28;20051;-58
2022/03/28 00:22:31;;;;;;;52.13;26.15;;;9.00;99.90;;;;;;5070642;28;20467;-58
2022/03/28 00:24:57;;;;;;;48.75;26.13;;;9.10;99.90;;;;;;5070757;28;20028;-58
2022/03/28 00:27:23;;;;;;;50.38;26.70;;;9.00;99.90;;;;;;5070749;28;20024;-58
2022/03/28 00:29:48;;;;;;;55.53;26.95;;;9.00;99.90;;;;;;5071256;28;20461;-58
2022/03/28 00:32:14;;;;;;;54.10;28.02;;;9.00;99.90;;;;;;5070767;28;20027;-58
2022/03/28 00:34:40;;;;;;;53.63;27.63;;;9.10;99.90;;;;;;5085704;28;20025;-58
2022/03/28 00:37:07;;;;;;;50.30;27.80;;;8.90;99.90;;;;;;5070542;28;20385;-58
2022/03/28 00:39:33;;;;;;;55.10;26.48;;;8.80;99.90;;;;;;5030406;28;20049;-58
2022/03/28 00:41:58;;;;;;;54.33;27.80;;;8.70;99.90;;;;;;5030571;28;20032;-58
2022/03/28 00:44:24;;;;;;;48.75;26.92;;;8.70;99.90;;;;;;5029221;28;20029;-58
2022/03/28 00:46:50;;;;;;;48.58;26.15;;;8.70;99.90;;;;;;5031748;28;20112;-58
2022/03/28 00:49:16;;;;;;;45.05;26.67;;;8.60;99.90;;;;;;5030657;28;20393;-58
2022/03/28 00:51:42;;;;;;;46.28;26.25;;;8.70;99.90;;;;;;5029835;28;20022;-58
2022/03/28 00:54:08;;;;;;;53.78;27.33;;;8.80;99.90;;;;;;5030731;28;20475;-58
2022/03/28 00:56:36;;;;;;;46.47;26.90;;;9.00;99.90;;;;;;5031633;28;20029;-58
2022/03/28 00:59:02;;;;;;;45.97;27.23;;;9.10;99.90;;;;;;5030673;28;20036;-58
2022/03/28 01:01:28;;;;;;;53.60;28.52;;;8.90;99.90;;;;;;5030837;28;20119;-58
2022/03/28 01:03:54;;;;;;;52.13;27.38;;;8.70;99.90;;;;;;5030405;28;20561;-58
2022/03/28 01:06:20;;;;;;;50.58;27.95;;;8.60;99.90;;;;;;5031049;28;20033;-58
2022/03/28 01:08:45;;;;;;;54.35;28.80;;;8.60;99.90;;;;;;5030940;28;20490;-58
2022/03/28 01:11:12;;;;;;;58.42;29.83;;;8.50;99.90;;;;;;5030629;28;20036;-58
2022/03/28 01:13:41;;;;;;;55.88;28.42;;;8.40;99.90;;;;;;5031754;28;20009;-58
2022/03/28 01:16:08;;;;;;;56.70;29.08;;;8.30;99.90;;;;;;5032104;28;20025;-58
2022/03/28 01:18:34;;;;;;;53.63;29.60;;;8.50;99.90;;;;;;5032231;28;20075;-58
2022/03/28 01:21:04;;;;;;;59.50;30.70;;;8.50;99.90;;;;;;5030967;28;20038;-58
2022/03/28 01:23:30;;;;;;;60.83;31.25;;;8.60;99.90;;;;;;5030608;28;20037;-58
2022/03/28 01:25:56;;;;;;;61.75;30.80;;;8.80;99.90;;;;;;5030333;28;20613;-58
2022/03/28 01:28:24;;;;;;;65.40;30.95;;;8.50;99.90;;;;;;5031498;28;20025;-58
2022/03/28 01:30:51;;;;;;;53.97;28.90;;;8.30;99.90;;;;;;5031030;28;20335;-58
2022/03/28 01:33:17;;;;;;;53.83;29.48;;;8.20;99.90;;;;;;5029012;28;20356;-58
2022/03/28 01:35:44;;;;;;;57.65;28.05;;;8.30;99.90;;;;;;5030444;28;20028;-58
2022/03/28 01:38:12;;;;;;;48.30;28.10;;;8.20;99.90;;;;;;5047880;28;20498;-58
2022/03/28 01:40:40;;;;;;;52.05;28.40;;;8.30;99.90;;;;;;5070911;28;20025;-58
2022/03/28 01:43:06;;;;;;;51.88;28.40;;;8.20;99.90;;;;;;5085516;28;20508;-58
2022/03/28 01:45:32;;;;;;;48.72;27.73;;;8.20;99.90;;;;;;5069740;28;20024;-58
2022/03/28 01:47:58;;;;;;;52.38;26.83;;;8.30;99.90;;;;;;5069576;28;20044;-58
2022/03/28 01:50:24;;;;;;;53.90;27.23;;;8.40;99.90;;;;;;5071085;28;20104;-58
2022/03/28 01:52:51;;;;;;;48.65;26.98;;;8.30;99.90;;;;;;5071296;28;20547;-58
2022/03/28 01:55:17;;;;;;;51.13;27.33;;;8.20;99.90;;;;;;5070577;28;20549;-58
2022/03/28 01:57:43;;;;;;;45.88;25.52;;;8.20;99.90;;;;;;5070590;28;20362;-58
2022/03/28 02:00:16;;;;;;;52.65;26.83;;;8.20;99.90;;;;;;5071018;28;20487;-58
2022/03/28 02:02:42;;;;;;;47.60;27.08;;;8.40;99.90;;;;;;5071184;28;20078;-58
2022/03/28 02:05:12;;;;;;;52.65;27.33;;;8.30;99.90;;;;;;5072113;28;20041;-58
2022/03/28 02:07:41;;;;;;;44.08;26.73;;;8.20;99.90;;;;;;5074143;28;20044;-58
2022/03/28 02:10:13;;;;;;;42.80;24.90;;;8.10;99.90;;;;;;5073624;28;20082;-58
2022/03/28 02:12:38;;;;;;;45.42;24.35;;;7.90;99.90;;;;;;5073506;28;20339;-58
2022/03/28 02:15:06;;;;;;;48.72;26.17;;;7.80;99.90;;;;;;5071803;28;20021;-58
2022/03/28 02:17:33;;;;;;;45.50;26.05;;;7.90;99.90;;;;;;5073469;28;20448;-58
2022/03/28 02:19:58;;;;;;;47.78;26.10;;;7.80;99.90;;;;;;5072251;28;20021;-58
2022/03/28 02:22:24;;;;;;;47.75;25.92;;;7.80;99.90;;;;;;5073883;28;20024;-58
2022/03/28 02:24:50;;;;;;;50.22;25.85;;;7.70;99.90;;;;;;5074517;28;20074;-57
2022/03/28 02:27:16;;;;;;;45.72;24.80;;;7.70;99.90;;;;;;5074044;28;20050;-58
2022/03/28 02:29:42;;;;;;;49.13;26.20;;;7.60;99.90;;;;;;5073244;28;20547;-58
2022/03/28 02:32:08;;;;;;;50.35;26.10;;;7.50;99.90;;;;;;5071828;28;20017;-58
2022/03/28 02:34:34;;;;;;;47.72;24.60;;;7.50;99.90;;;;;;5073053;28;20028;-58
2022/03/28 02:36:59;;;;;;;47.42;26.05;;;7.50;99.90;;;;;;5073049;28;20031;-58
2022/03/28 02:39:25;;;;;;;44.17;24.77;;;7.40;99.90;;;;;;5072348;28;20048;-58
2022/03/28 02:41:52;;;;;;;44.20;25.58;;;7.40;99.90;;;;;;5072552;28;20029;-58
2022/03/28 02:44:18;;;;;;;48.78;24.63;;;7.30;99.90;;;;;;5072792;28;20053;-58
2022/03/28 02:46:46;;;;;;;49.53;25.13;;;7.30;99.90;;;;;;5073166;28;20035;-58
2022/03/28 02:49:12;;;;;;;46.40;25.23;;;7.30;99.90;;;;;;5072447;28;20228;-59
2022/03/28 02:51:38;;;;;;;42.08;24.50;;;7.40;99.90;;;;;;5072275;28;20028;-58
2022/03/28 02:54:04;;;;;;;44.25;24.33;;;7.40;99.90;;;;;;5072673;28;20035;-58
2022/03/28 02:56:29;;;;;;;43.70;24.30;;;7.40;99.90;;;;;;5072284;28;20024;-58
2022/03/28 02:58:55;;;;;;;45.53;24.02;;;7.40;99.90;;;;;;5071759;28;20508;-58
2022/03/28 03:01:20;;;;;;;47.13;24.15;;;7.30;99.90;;;;;;5072191;28;20027;-57
2022/03/28 03:03:46;;;;;;;47.78;24.42;;;7.10;99.90;;;;;;5072499;28;20113;-59
2022/03/28 03:06:12;;;;;;;44.97;24.13;;;7.10;99.90;;;;;;5072754;28;20043;-58
2022/03/28 03:08:37;;;;;;;48.15;25.60;;;7.10;99.90;;;;;;5073900;28;20039;-58
2022/03/28 03:11:03;;;;;;;42.38;23.95;;;7.10;99.90;;;;;;5071786;28;20086;-59
2022/03/28 03:13:29;;;;;;;42.83;23.92;;;7.20;99.90;;;;;;5072759;28;20020;-58
2022/03/28 03:15:54;;;;;;;44.20;25.20;;;7.40;99.90;;;;;;5072018;28;20032;-57
2022/03/28 03:18:20;;;;;;;42.08;24.42;;;7.30;99.90;;;;;;5072720;28;20017;-60
2022/03/28 03:20:45;;;;;;;44.40;25.58;;;7.20;99.90;;;;;;5072908;28;20042;-58
2022/03/28 03:23:11;;;;;;;45.55;24.73;;;7.20;99.90;;;;;;5070628;28;20028;-58
2022/03/28 03:25:37;;;;;;;46.17;24.85;;;7.10;99.90;;;;;;5072574;28;20032;-58
2022/03/28 03:28:03;;;;;;;43.20;25.05;;;7.10;99.90;;;;;;5072245;28;20112;-58
2022/03/28 03:30:29;;;;;;;45.15;24.55;;;7.00;99.90;;;;;;5072082;28;20099;-58
2022/03/28 03:32:55;;;;;;;46.00;24.63;;;7.00;99.90;;;;;;5071989;28;20020;-58
2022/03/28 03:35:21;;;;;;;42.28;23.65;;;7.00;99.90;;;;;;5072873;28;20020;-57
2022/03/28 03:37:46;;;;;;;41.90;24.48;;;7.10;99.90;;;;;;5070433;28;20053;-58
2022/03/28 03:40:12;;;;;;;46.53;24.25;;;7.20;99.90;;;;;;5072200;28;20052;-58
2022/03/28 03:42:38;;;;;;;44.05;24.77;;;7.20;99.90;;;;;;5071576;28;20025;-58
2022/03/28 03:45:05;;;;;;;44.33;24.50;;;7.20;99.90;;;;;;5072155;28;20073;-58
2022/03/28 03:47:31;;;;;;;41.45;23.67;;;7.30;99.90;;;;;;5072006;28;20039;-58
2022/03/28 03:49:57;;;;;;;47.15;25.15;;;7.20;99.90;;;;;;5071718;28;20480;-57
2022/03/28 03:52:22;;;;;;;44.45;24.42;;;7.20;99.90;;;;;;5071865;28;20020;-58
2022/03/28 03:54:48;;;;;;;45.88;24.85;;;7.20;99.90;;;;;;5071646;28;20031;-57
2022/03/28 03:57:14;;;;;;;46.85;25.45;;;7.20;99.90;;;;;;5072193;28;20086;-58
2022/03/28 03:59:40;;;;;;;48.95;25.65;;;7.20;99.90;;;;;;5070170;28;20020;-58
2022/03/28 04:02:05;;;;;;;46.78;24.80;;;7.10;99.90;;;;;;5072282;28;20063;-57
2022/03/28 04:04:31;;;;;;;48.55;25.88;;;7.10;99.90;;;;;;5072222;28;20044;-57
2022/03/28 04:06:57;;;;;;;47.15;25.25;;;7.00;99.90;;;;;;5071201;28;20036;-57
2022/03/28 04:09:22;;;;;;;49.22;25.70;;;6.90;99.90;;;;;;5071895;28;20127;-57
2022/03/28 04:11:48;;;;;;;50.60;25.63;;;6.90;99.90;;;;;;5071937;28;20048;-57
2022/03/28 04:14:15;;;;;;;49.00;26.98;;;6.90;99.90;;;;;;5071321;28;20488;-57
2022/03/28 04:16:41;;;;;;;51.08;25.70;;;6.80;99.90;;;;;;5071633;28;20021;-57
2022/03/28 04:19:07;;;;;;;50.10;27.15;;;6.80;99.90;;;;;;5070910;28;20351;-57
2022/03/28 04:21:32;;;;;;;47.75;25.77;;;6.80;99.90;;;;;;5070522;28;20033;-57
2022/03/28 04:23:58;;;;;;;47.53;25.33;;;6.70;99.90;;;;;;5070985;28;20060;-57
2022/03/28 04:26:23;;;;;;;54.00;26.52;;;6.70;99.90;;;;;;5071261;28;20028;-57
2022/03/28 04:28:49;;;;;;;47.08;26.48;;;6.70;99.90;;;;;;5070886;28;20033;-57
2022/03/28 04:31:16;;;;;;;51.95;26.65;;;6.90;99.90;;;;;;5070050;28;20029;-58
2022/03/28 04:33:41;;;;;;;50.03;26.30;;;6.80;99.90;;;;;;5071272;28;20020;-58
2022/03/28 04:36:07;;;;;;;48.55;27.08;;;6.70;99.90;;;;;;5070490;28;20024;-59
2022/03/28 04:38:33;;;;;;;54.67;26.83;;;6.60;99.90;;;;;;5070930;28;20509;-60
2022/03/28 04:40:58;;;;;;;47.00;25.33;;;6.50;99.90;;;;;;5070726;28;20028;-58
2022/03/28 04:43:24;;;;;;;47.03;25.50;;;6.50;99.90;;;;;;5070905;28;20096;-58
2022/03/28 04:45:49;;;;;;;50.83;25.05;;;6.60;99.90;;;;;;5071232;28;20024;-59
2022/03/28 04:48:15;;;;;;;43.67;24.35;;;6.40;99.90;;;;;;5071745;28;20051;-58
2022/03/28 04:50:41;;;;;;;55.50;26.08;;;6.20;99.90;;;;;;5070961;28;20458;-58
2022/03/28 04:53:07;;;;;;;47.38;26.02;;;6.30;99.90;;;;;;5070658;28;20033;-58
2022/03/28 04:55:32;;;;;;;49.20;25.33;;;6.30;99.90;;;;;;5070636;28;20024;-58
2022/03/28 04:57:58;;;;;;;52.05;23.55;;;6.30;99.90;;;;;;5070947;28;20031;-58
2022/03/28 05:00:24;;;;;;;46.33;24.27;;;6.10;99.90;;;;;;5070341;28;20028;-58
2022/03/28 05:02:50;;;;;;;50.38;25.42;;;6.00;99.90;;;;;;5070963;28;20028;-58
2022/03/28 05:05:15;;;;;;;53.05;26.65;;;5.90;99.90;;;;;;5071137;28;20481;-58
2022/03/28 05:07:41;;;;;;;46.15;25.27;;;6.00;99.90;;;;;;5070440;28;20028;-58
2022/03/28 05:10:07;;;;;;;59.63;26.73;;;6.00;99.90;;;;;;5070694;28;20039;-58
2022/03/28 05:12:34;;;;;;;52.80;27.75;;;6.00;99.90;;;;;;5085880;28;20116;-58
2022/03/28 05:15:00;;;;;;;51.17;26.55;;;6.10;99.90;;;;;;5070588;28;20448;-58
2022/03/28 05:17:30;;;;;;;54.78;26.35;;;6.20;99.90;;;;;;5071007;28;20520;-58
2022/03/28 05:19:57;;;;;;;59.60;26.23;;;6.20;99.90;;;;;;5070747;28;20047;-58
2022/03/28 05:22:23;;;;;;;53.53;26.35;;;6.20;99.90;;;;;;5070190;28;20116;-58
2022/03/28 05:24:51;;;;;;;49.40;25.42;;;6.20;99.90;;;;;;5071298;28;20021;-58
2022/03/28 05:27:17;;;;;;;55.33;26.77;;;6.10;99.90;;;;;;5070602;28;20025;-58
2022/03/28 05:29:43;;;;;;;52.88;24.38;;;6.10;99.90;;;;;;5070484;28;20501;-58
2022/03/28 05:32:10;;;;;;;45.95;22.73;;;6.10;99.90;;;;;;5071144;28;20078;-58
2022/03/28 05:34:36;;;;;;;49.00;24.23;;;6.00;99.90;;;;;;5070556;28;20479;-58
2022/03/28 05:37:05;;;;;;;60.78;29.00;;;5.90;99.90;;;;;;5070756;28;20035;-58
2022/03/28 05:39:32;;;;;;;53.55;28.70;;;6.00;99.90;;;;;;5072254;28;20048;-58
2022/03/28 05:41:58;;;;;;;48.22;25.45;;;6.00;99.90;;;;;;5074432;28;20031;-58
2022/03/28 05:44:24;;;;;;;52.90;28.30;;;6.10;99.90;;;;;;5053691;28;20537;-58
2022/03/28 05:46:51;;;;;;;53.95;26.02;;;6.20;99.90;;;;;;5053605;28;20029;-58
2022/03/28 05:49:18;;;;;;;53.40;26.13;;;6.20;99.90;;;;;;5053318;28;20024;-59
2022/03/28 05:51:43;;;;;;;52.22;25.80;;;6.30;99.90;;;;;;5049356;28;20505;-58
2022/03/28 05:54:09;;;;;;;53.03;24.80;;;6.30;99.90;;;;;;5062369;28;20025;-58
2022/03/28 05:56:35;;;;;;;48.05;22.90;;;6.20;99.90;;;;;;5053436;28;20021;-58
2022/03/28 05:59:02;;;;;;;47.53;23.40;;;6.10;99.90;;;;;;5071238;28;20025;-58
2022/03/28 06:01:28;;;;;;;45.13;23.52;;;6.10;99.90;;;;;;5057002;28;20454;-58
2022/03/28 06:03:54;;;;;;;48.95;24.40;;;6.10;99.90;;;;;;5051528;28;20070;-58
2022/03/28 06:06:20;;;;;;;47.53;24.23;;;6.10;99.90;;;;;;5056209;28;20112;-58
2022/03/28 06:08:45;;;;;;;48.50;25.17;;;6.40;99.90;;;;;;5051643;28;20029;-58
2022/03/28 06:11:11;;;;;;;100.82;29.60;;;6.60;99.90;;;;;;5066702;28;20033;-58
2022/03/28 06:13:37;;;;;;;68.22;25.83;;;6.60;99.90;;;;;;5043857;28;20029;-57
2022/03/28 06:16:04;;;;;;;57.53;24.75;;;6.60;99.90;;;;;;5046490;28;20425;-57
2022/03/28 06:18:30;;;;;;;53.70;24.17;;;6.50;99.90;;;;;;5046003;28;20021;-57
2022/03/28 06:20:55;;;;;;;67.90;24.73;;;6.50;99.90;;;;;;5060196;28;20513;-58
2022/03/28 06:23:22;;;;;;;53.75;23.52;;;6.70;99.90;;;;;;5049632;28;20068;-58
2022/03/28 06:25:47;;;;;;;51.17;23.58;;;6.70;99.90;;;;;;5047738;28;20071;-57
2022/03/28 06:28:13;;;;;;;46.80;22.80;;;6.90;99.90;;;;;;5047250;28;20060;-57
2022/03/28 06:30:39;;;;;;;57.40;23.20;;;6.80;99.90;;;;;;5057958;28;20324;-59
2022/03/28 06:33:05;;;;;;;52.88;21.83;;;6.70;99.90;;;;;;5046228;28;20497;-57
2022/03/28 06:35:30;;;;;;;50.03;22.95;;;6.60;99.90;;;;;;5051157;28;20059;-57
2022/03/28 06:37:56;;;;;;;44.67;21.40;;;6.80;99.90;;;;;;5049027;28;20061;-57
2022/03/28 06:40:22;;;;;;;45.83;21.00;;;6.70;99.90;;;;;;5042667;28;20546;-58
2022/03/28 06:42:48;;;;;;;46.70;21.75;;;6.60;99.90;;;;;;5044779;28;20056;-58
2022/03/28 06:45:14;;;;;;;53.85;22.85;;;6.70;99.90;;;;;;5044913;28;20064;-58
2022/03/28 06:47:40;;;;;;;46.22;22.23;;;6.90;99.90;;;;;;5046117;28;20064;-58
2022/03/28 06:50:07;;;;;;;45.97;23.30;;;7.00;99.90;;;;;;5043609;28;20034;-58
2022/03/28 06:52:34;;;;;;;54.33;27.75;;;7.00;99.90;;;;;;5045988;28;20048;-58
2022/03/28 06:55:00;;;;;;;52.80;25.65;;;7.10;99.90;;;;;;5043317;28;20486;-58
2022/03/28 06:57:26;;;;;;;47.85;26.35;;;7.40;99.90;;;;;;5044868;28;20044;-58
2022/03/28 06:59:55;;;;;;;53.75;25.67;;;7.50;99.90;;;;;;5046904;28;20052;-59
2022/03/28 07:02:21;;;;;;;46.42;22.98;;;7.60;99.90;;;;;;5046828;28;20371;-58
2022/03/28 07:04:46;;;;;;;49.80;22.92;;;7.80;99.90;;;;;;5038466;28;20091;-58
2022/03/28 07:07:12;;;;;;;44.40;22.55;;;7.80;99.90;;;;;;5042476;28;20032;-58
2022/03/28 07:09:38;;;;;;;40.50;21.95;;;8.00;99.90;;;;;;5046904;28;20044;-58
2022/03/28 07:12:05;;;;;;;41.70;23.00;;;8.00;99.90;;;;;;5042243;28;20116;-58
2022/03/28 07:14:32;;;;;;;44.10;21.63;;;8.00;99.90;;;;;;5045891;28;20381;-58
2022/03/28 07:16:59;;;;;;;39.80;22.70;;;8.10;99.90;;;;;;5053322;28;20477;-59
2022/03/28 07:19:24;;;;;;;43.10;22.92;;;8.20;99.90;;;;;;5043811;28;20087;-58
2022/03/28 07:21:50;;;;;;;41.75;23.42;;;8.30;99.90;;;;;;5046752;28;20029;-56
2022/03/28 07:24:17;;;;;;;37.70;23.30;;;8.50;99.90;;;;;;5047604;28;20457;-56
2022/03/28 07:26:48;;;;;;;44.83;24.60;;;8.70;99.90;;;;;;5045818;28;20410;-56
2022/03/28 07:29:17;;;;;;;53.35;28.77;;;9.00;99.90;;;;;;5045340;28;20032;-56
2022/03/28 07:31:49;;;;;;;51.15;30.13;;;9.20;99.90;;;;;;5046386;28;20040;-56
2022/03/28 07:34:32;;;;;;;57.58;32.17;;;9.50;99.90;;;;;;5040375;28;20029;-56
2022/03/28 07:36:59;;;;;;;49.33;30.13;;;9.80;99.90;;;;;;5042897;28;20052;-57
2022/03/28 07:39:25;;;;;;;47.03;28.10;;;10.00;99.90;;;;;;5046721;28;20065;-57
2022/03/28 07:41:52;;;;;;;49.92;28.10;;;10.20;99.90;;;;;;5044849;28;20087;-56
2022/03/28 07:44:18;;;;;;;53.63;27.48;;;10.40;99.90;;;;;;5042396;28;20115;-56
2022/03/28 07:46:45;;;;;;;48.85;27.65;;;10.60;99.90;;;;;;5042027;28;20025;-56
2022/03/28 07:49:16;;;;;;;55.15;29.92;;;10.60;99.90;;;;;;5041999;28;20061;-56
2022/03/28 07:51:42;;;;;;;48.22;26.90;;;10.90;99.90;;;;;;5036946;28;20033;-57
2022/03/28 07:54:07;;;;;;;45.97;27.08;;;11.60;99.90;;;;;;5020046;28;20065;-57
2022/03/28 07:56:33;;;;;;;41.38;25.15;;;12.80;99.90;;;;;;5034068;28;20025;-57
2022/03/28 07:58:59;;;;;;;41.95;24.48;;;14.20;99.90;;;;;;5035174;28;20440;-56
2022/03/28 08:01:25;;;;;;;38.83;24.00;;;15.10;99.90;;;;;;5034524;28;20043;-56
2022/03/28 08:03:51;;;;;;;38.50;23.50;;;16.10;99.90;;;;;;5029384;28;20482;-57
2022/03/28 08:06:17;;;;;;;43.33;24.77;;;17.20;99.90;;;;;;5035289;28;20710;-57
2022/03/28 08:08:43;;;;;;;42.95;28.55;;;17.80;99.90;;;;;;5033717;28;20040;-57
2022/03/28 08:11:09;;;;;;;40.72;27.73;;;18.20;99.40;;;;;;5038822;28;20033;-56
2022/03/28 08:13:35;;;;;;;51.30;28.60;;;17.60;99.80;;;;;;5034436;28;20025;-57
2022/03/28 08:16:01;;;;;;;42.97;26.48;;;17.80;99.90;;;;;;5032465;28;20502;-57
2022/03/28 08:18:27;;;;;;;42.72;23.92;;;18.80;98.90;;;;;;5035949;28;20265;-57
2022/03/28 08:20:53;;;;;;;41.58;24.67;;;20.20;96.30;;;;;;5036634;28;20116;-57
2022/03/28 08:23:20;;;;;;;37.97;23.40;;;20.30;95.10;;;;;;5037269;28;20033;-57
2022/03/28 08:25:47;;;;;;;38.00;22.73;;;20.10;94.80;;;;;;5036653;28;20371;-57
2022/03/28 08:28:13;;;;;;;34.53;23.05;;;19.20;95.80;;;;;;5037466;28;20245;-57
2022/03/28 08:30:39;;;;;;;31.40;21.67;;;19.20;96.20;;;;;;5038691;28;21104;-57
2022/03/28 08:33:05;;;;;;;31.52;22.08;;;19.30;96.00;;;;;;5034144;28;20036;-56
2022/03/28 08:35:31;;;;;;;35.85;23.30;;;20.00;95.60;;;;;;5032585;28;20437;-57
2022/03/28 08:37:57;;;;;;;36.00;22.40;;;20.20;94.40;;;;;;5039524;28;20135;-57
2022/03/28 08:40:23;;;;;;;27.75;21.23;;;20.60;93.90;;;;;;5037081;28;20167;-57
2022/03/28 08:42:49;;;;;;;33.97;23.15;;;21.00;93.20;;;;;;5040432;28;20428;-57
2022/03/28 08:45:17;;;;;;;35.75;22.38;;;21.50;92.20;;;;;;5037961;28;20045;-57
2022/03/28 08:47:47;;;;;;;29.42;20.55;;;21.30;92.50;;;;;;5041037;28;20033;-57
2022/03/28 08:50:14;;;;;;;26.35;19.15;;;21.30;92.70;;;;;;5036519;28;20036;-57
2022/03/28 08:52:43;;;;;;;25.77;18.67;;;21.00;92.70;;;;;;5030942;28;20142;-58
2022/03/28 08:55:11;;;;;;;28.30;20.27;;;20.50;93.60;;;;;;5035257;28;20017;-57
2022/03/28 08:57:37;;;;;;;29.67;19.48;;;20.30;93.70;;;;;;5037349;28;20025;-57
2022/03/28 09:00:09;;;;;;;25.05;18.50;;;20.70;93.10;;;;;;5035444;28;20145;-57
2022/03/28 09:02:45;;;;;;;32.45;20.15;;;20.50;92.90;;;;;;5037706;28;20032;-58
2022/03/28 09:05:14;;;;;;;28.05;19.45;;;20.50;92.60;;;;;;5035602;28;20106;-57
2022/03/28 09:07:41;;;;;;;29.00;19.02;;;20.90;91.60;;;;;;5034787;28;20119;-57
2022/03/28 09:10:17;;;;;;;25.35;18.40;;;20.90;92.00;;;;;;5037453;28;20037;-57
2022/03/28 09:13:02;;;;;;;24.58;18.92;;;20.70;91.40;;;;;;5040594;28;20032;-56
2022/03/28 09:15:47;;;;;;;28.83;18.60;;;20.90;90.60;;;;;;5041103;28;20029;-57
2022/03/28 09:18:25;;;;;;;26.02;18.35;;;20.80;90.50;;;;;;5043213;28;20028;-56
2022/03/28 09:20:56;;;;;;;25.98;19.05;;;20.80;91.20;;;;;;5042356;28;20444;-56
2022/03/28 09:23:30;;;;;;;25.42;19.40;;;20.90;90.90;;;;;;5042037;28;20111;-56
2022/03/28 09:25:57;;;;;;;26.45;18.75;;;21.00;90.90;;;;;;5037884;28;20033;-58
2022/03/28 09:28:45;;;;;;;32.05;19.38;;;21.50;90.60;;;;;;5044171;28;20494;-58
2022/03/28 09:31:19;;;;;;;26.60;19.33;;;21.60;90.80;;;;;;5040510;28;20545;-56
2022/03/28 09:33:51;;;;;;;24.63;18.80;;;22.20;90.00;;;;;;5042912;28;20120;-56
2022/03/28 09:36:17;;;;;;;25.20;18.52;;;21.80;89.20;;;;;;5042200;28;20102;-57
2022/03/28 09:38:55;;;;;;;26.40;18.92;;;21.80;89.20;;;;;;5040888;28;20040;-57
2022/03/28 09:41:23;;;;;;;26.60;18.33;;;21.90;88.00;;;;;;5035044;28;20663;-57
2022/03/28 09:43:54;;;;;;;28.10;19.20;;;22.10;87.10;;;;;;5038312;28;20021;-56
2022/03/28 09:46:28;;;;;;;24.48;18.20;;;21.80;86.40;;;;;;5040369;28;20040;-56
2022/03/28 09:48:57;;;;;;;24.50;18.20;;;21.40;87.50;;;;;;5040958;28;20021;-56
2022/03/28 09:51:26;;;;;;;24.27;17.83;;;22.00;87.20;;;;;;5034053;28;20539;-56
2022/03/28 09:53:51;;;;;;;27.05;19.33;;;22.60;86.10;;;;;;5041310;28;20389;-57
2022/03/28 09:56:18;;;;;;;22.38;17.05;;;22.70;84.50;;;;;;5036558;28;20021;-57
2022/03/28 09:58:49;;;;;;;27.08;18.48;;;22.70;81.70;;;;;;5040813;28;20040;-58
2022/03/28 10:01:19;;;;;;;25.73;19.40;;;22.80;81.90;;;;;;5040952;28;20086;-57
2022/03/28 10:03:47;;;;;;;28.27;20.20;;;22.70;81.40;;;;;;5041590;28;20056;-58
2022/03/28 10:06:13;;;;;;;28.08;19.40;;;23.10;79.50;;;;;;5038996;28;20037;-57
2022/03/28 10:08:39;;;;;;;26.65;18.75;;;23.00;80.30;;;;;;5041038;28;20035;-57
2022/03/28 10:11:06;;;;;;;27.63;19.05;;;22.80;80.80;;;;;;5041722;28;20048;-57
2022/03/28 10:13:32;;;;;;;31.63;17.27;;;22.50;81.40;;;;;;5041413;28;20061;-58
2022/03/28 10:15:59;;;;;;;23.17;16.88;;;22.40;80.60;;;;;;5048280;28;20141;-57
2022/03/28 10:18:33;;;;;;;24.38;17.48;;;23.00;79.80;;;;;;5047829;28;20051;-56
2022/03/28 10:21:06;;;;;;;26.42;17.50;;;22.90;80.90;;;;;;5044733;28;20055;-57
2022/03/28 10:23:37;;;;;;;21.52;17.10;;;22.50;80.50;;;;;;5046212;28;20545;-57
2022/03/28 10:26:07;;;;;;;26.52;16.25;;;22.60;81.40;;;;;;5045939;28;20490;-57
2022/03/28 10:28:33;;;;;;;24.00;17.15;;;22.70;80.30;;;;;;5046390;28;20021;-57
2022/03/28 10:31:17;;;;;;;21.67;17.23;;;23.10;78.30;;;;;;5050330;28;20040;-57
2022/03/28 10:33:51;;;;;;;24.88;17.02;;;23.20;78.80;;;;;;5049069;28;20186;-57
2022/03/28 10:36:23;;;;;;;26.60;16.85;;;23.70;75.70;;;;;;5040684;28;20028;-57
2022/03/28 10:38:51;;;;;;;33.97;16.25;;;23.10;76.50;;;;;;5047634;28;20444;-57
2022/03/28 10:41:19;;;;;;;25.90;17.73;;;23.30;77.00;;;;;;5051897;28;20033;-57
2022/03/28 10:43:45;;;;;;;21.85;16.40;;;23.60;75.40;;;;;;5051668;28;20492;-57
2022/03/28 10:46:12;;;;;;;33.78;17.77;;;23.70;75.10;;;;;;5052154;28;20052;-57
2022/03/28 10:49:00;;;;;;;21.63;16.55;;;24.00;73.20;;;;;;5048270;28;20029;-57
2022/03/28 10:51:31;;;;;;;23.20;17.88;;;24.90;71.40;;;;;;5050382;28;20094;-57
2022/03/28 10:54:05;;;;;;;29.40;17.00;;;24.40;72.30;;;;;;5046022;28;20090;-58
2022/03/28 10:56:37;;;;;;;23.88;17.38;;;24.70;71.30;;;;;;5049858;28;20039;-57
2022/03/28 10:59:08;;;;;;;27.20;16.83;;;24.40;70.80;;;;;;5050481;28;20032;-56
2022/03/28 11:01:35;;;;;;;22.90;17.98;;;24.30;72.80;;;;;;5050379;28;20096;-57
2022/03/28 11:04:05;;;;;;;32.83;17.90;;;24.90;70.20;;;;;;5044306;28;20028;-57
2022/03/28 11:06:49;;;;;;;28.13;17.60;;;24.70;70.30;;;;;;5049246;28;20472;-57
2022/03/28 11:09:34;;;;;;;26.30;18.13;;;23.90;70.80;;;;;;5038232;28;20028;-57
2022/03/28 11:12:05;;;;;;;24.20;18.13;;;24.60;70.10;;;;;;5043696;28;20032;-57
2022/03/28 11:14:51;;;;;;;27.27;18.98;;;24.90;68.80;;;;;;5034472;28;20414;-57
2022/03/28 11:17:20;;;;;;;26.98;19.33;;;24.30;69.10;;;;;;5039524;28;21007;-56
2022/03/28 11:20:03;;;;;;;25.85;18.23;;;24.20;69.00;;;;;;5037319;28;20025;-56
2022/03/28 11:22:47;;;;;;;23.38;18.10;;;24.50;68.80;;;;;;5039866;28;20028;-56
2022/03/28 11:25:34;;;;;;;24.40;18.02;;;24.30;68.00;;;;;;5043521;28;20502;-56
2022/03/28 11:28:25;;;;;;;24.55;18.52;;;24.50;67.90;;;;;;5036758;28;20029;-57
2022/03/28 11:30:52;;;;;;;25.83;18.58;;;24.40;67.50;;;;;;5036495;28;20517;-57
2022/03/28 11:33:26;;;;;;;24.00;17.95;;;24.80;66.00;;;;;;5045485;28;20032;-57
2022/03/28 11:36:04;;;;;;;25.08;18.42;;;25.10;66.10;;;;;;5040680;28;20551;-57
2022/03/28 11:38:41;;;;;;;35.58;19.67;;;25.30;65.40;;;;;;5039236;28;20052;-57
2022/03/28 11:41:09;;;;;;;28.08;19.00;;;25.10;66.20;;;;;;5040287;28;20040;-57
2022/03/28 11:43:37;;;;;;;29.13;19.42;;;25.10;65.40;;;;;;5056364;28;20481;-57
2022/03/28 11:46:10;;;;;;;25.92;19.48;;;24.70;66.20;;;;;;5038360;28;20498;-58
2022/03/28 11:48:37;;;;;;;27.33;19.27;;;25.20;65.00;;;;;;5037091;28;20451;-59
2022/03/28 11:51:16;;;;;;;28.40;18.23;;;24.80;64.70;;;;;;5038159;28;20788;-58
2022/03/28 11:53:42;;;;;;;32.60;18.90;;;24.80;65.30;;;;;;5037454;28;20032;-59
2022/03/28 11:56:08;;;;;;;30.15;19.17;;;24.60;66.10;;;;;;5040702;28;20024;-59
2022/03/28 11:58:34;;;;;;;30.20;18.75;;;25.10;64.30;;;;;;5038701;28;20029;-59
2022/03/28 12:01:07;;;;;;;38.45;19.23;;;25.50;64.00;;;;;;5042136;28;20815;-59
2022/03/28 12:03:33;;;;;;;36.80;20.83;;;24.90;64.50;;;;;;5037475;28;20079;-59
2022/03/28 12:06:00;;;;;;;28.67;20.15;;;25.50;65.50;;;;;;5043806;28;20033;-59
2022/03/28 12:08:28;;;;;;;31.85;19.55;;;26.10;63.70;;;;;;5043474;28;20051;-59
2022/03/28 12:10:54;;;;;;;35.05;19.77;;;25.80;63.10;;;;;;5043051;28;20494;-59
2022/03/28 12:13:22;;;;;;;28.50;20.15;;;25.50;63.10;;;;;;5040651;28;20091;-59
2022/03/28 12:15:50;;;;;;;28.10;20.30;;;25.60;63.00;;;;;;5040389;28;20660;-59
2022/03/28 12:18:18;;;;;;;29.00;19.45;;;26.40;60.70;;;;;;5035906;28;20068;-59
2022/03/28 12:20:47;;;;;;;28.65;19.55;;;27.10;60.00;;;;;;5040771;28;20343;-59
2022/03/28 12:23:14;;;;;;;23.98;18.52;;;26.60;61.50;;;;;;5044775;28;20379;-59
2022/03/28 12:25:41;;;;;;;36.25;18.98;;;26.20;61.60;;;;;;5042517;28;20449;-59
2022/03/28 12:28:09;;;;;;;27.25;18.58;;;26.30;61.60;;;;;;5039826;28;20599;-59
2022/03/28 12:30:38;;;;;;;33.78;20.02;;;26.80;59.60;;;;;;5038308;28;20131;-59
2022/03/28 12:33:13;;;;;;;25.88;19.77;;;25.80;61.00;;;;;;5035320;28;20033;-58
2022/03/28 12:35:42;;;;;;;32.70;21.15;;;25.20;63.30;;;;;;5037429;28;20448;-59